EDLI 212041Z 29003KT 9999 04/04 Q1011

Wind aktuell: 300° mit 3 kt

Wind 10 Minuten extrem:

240° bis 330° mit 1 kt bis 4 kt

Seitenwindkomponente: -0.4 kt

Wolkengrenze 1: keine

Wolkengrenze 2: keine

Wolkengrenze 3: keine

Sichtweite: 20.000 Meter

Vorheriges Wetter:

Aktuelles Wetter:

Temperatur: 4.5 °C

Taupunkt: 4.1 °C

Luftfeuchtigkeit: 97%

QNH: 1011 hPa 

QFE: 994 hPa

Diese Daten werden automatisch ermittelt bzw. übertragen und sind nicht geprüft. Für die Richtigkeit wird daher keine Gewähr übernommen. Sie ersetzen im übrigen nicht die Flugwetterberatung. Alle Zeitangaben beziehen sich auf UTC. Die Seite wird einmal die Minute aktualisiert! Sollten Sie ein ältere Seite haben, so drücken Sie bitte auf den Reload Button Ihres Browsers!